sensor_id;sensor_type;location;lat;lon;timestamp;P1;durP1;ratioP1;P2;durP2;ratioP2
18711;SDS011;9485;49.386;8.674;2024-01-27T00:02:26;6.60;;;3.97;;
18711;SDS011;9485;49.386;8.674;2024-01-27T00:07:48;4.70;;;3.63;;
18711;SDS011;9485;49.386;8.674;2024-01-27T00:13:08;6.60;;;3.67;;
18711;SDS011;9485;49.386;8.674;2024-01-27T00:18:29;5.07;;;3.37;;
18711;SDS011;9485;49.386;8.674;2024-01-27T00:23:50;3.77;;;3.30;;
18711;SDS011;9485;49.386;8.674;2024-01-27T00:29:11;5.17;;;3.10;;
18711;SDS011;9485;49.386;8.674;2024-01-27T00:34:32;4.70;;;3.00;;
18711;SDS011;9485;49.386;8.674;2024-01-27T00:39:54;3.53;;;3.23;;
18711;SDS011;9485;49.386;8.674;2024-01-27T00:45:14;3.80;;;3.40;;
18711;SDS011;9485;49.386;8.674;2024-01-27T00:50:35;4.37;;;3.43;;
18711;SDS011;9485;49.386;8.674;2024-01-27T00:55:56;5.70;;;3.23;;
18711;SDS011;9485;49.386;8.674;2024-01-27T01:01:17;5.27;;;2.90;;
18711;SDS011;9485;49.386;8.674;2024-01-27T01:06:38;4.13;;;2.80;;
18711;SDS011;9485;49.386;8.674;2024-01-27T01:12:00;4.53;;;2.93;;
18711;SDS011;9485;49.386;8.674;2024-01-27T01:17:21;4.70;;;2.70;;
18711;SDS011;9485;49.386;8.674;2024-01-27T01:22:42;3.53;;;2.97;;
18711;SDS011;9485;49.386;8.674;2024-01-27T01:28:04;4.97;;;2.60;;
18711;SDS011;9485;49.386;8.674;2024-01-27T01:33:25;5.00;;;2.87;;
18711;SDS011;9485;49.386;8.674;2024-01-27T01:38:46;4.93;;;2.80;;
18711;SDS011;9485;49.386;8.674;2024-01-27T01:44:10;4.33;;;3.03;;
18711;SDS011;9485;49.386;8.674;2024-01-27T01:49:31;4.33;;;2.70;;
18711;SDS011;9485;49.386;8.674;2024-01-27T01:54:51;3.43;;;3.03;;
18711;SDS011;9485;49.386;8.674;2024-01-27T02:00:14;4.00;;;2.60;;
18711;SDS011;9485;49.386;8.674;2024-01-27T02:05:36;5.10;;;3.30;;
18711;SDS011;9485;49.386;8.674;2024-01-27T02:10:56;4.53;;;2.80;;
18711;SDS011;9485;49.386;8.674;2024-01-27T02:16:21;4.90;;;2.90;;
18711;SDS011;9485;49.386;8.674;2024-01-27T02:21:42;4.87;;;2.67;;
18711;SDS011;9485;49.386;8.674;2024-01-27T02:27:04;4.60;;;2.43;;
18711;SDS011;9485;49.386;8.674;2024-01-27T02:32:24;4.27;;;2.20;;
18711;SDS011;9485;49.386;8.674;2024-01-27T02:37:45;4.87;;;2.90;;
18711;SDS011;9485;49.386;8.674;2024-01-27T02:43:06;4.83;;;2.40;;
18711;SDS011;9485;49.386;8.674;2024-01-27T02:48:27;3.50;;;2.37;;
18711;SDS011;9485;49.386;8.674;2024-01-27T02:53:48;2.97;;;2.63;;
18711;SDS011;9485;49.386;8.674;2024-01-27T02:59:09;3.47;;;2.00;;
18711;SDS011;9485;49.386;8.674;2024-01-27T03:04:31;3.80;;;2.10;;
18711;SDS011;9485;49.386;8.674;2024-01-27T03:09:52;3.00;;;2.20;;
18711;SDS011;9485;49.386;8.674;2024-01-27T03:15:16;6.30;;;2.87;;
18711;SDS011;9485;49.386;8.674;2024-01-27T03:20:37;3.30;;;2.23;;
18711;SDS011;9485;49.386;8.674;2024-01-27T03:25:57;5.03;;;2.50;;
18711;SDS011;9485;49.386;8.674;2024-01-27T03:31:19;4.53;;;2.07;;
18711;SDS011;9485;49.386;8.674;2024-01-27T03:36:39;4.70;;;2.37;;
18711;SDS011;9485;49.386;8.674;2024-01-27T03:42:00;3.50;;;2.47;;
18711;SDS011;9485;49.386;8.674;2024-01-27T03:47:23;3.27;;;2.33;;
18711;SDS011;9485;49.386;8.674;2024-01-27T03:52:44;5.03;;;2.30;;
18711;SDS011;9485;49.386;8.674;2024-01-27T03:58:04;2.97;;;2.03;;
18711;SDS011;9485;49.386;8.674;2024-01-27T04:03:26;3.40;;;2.20;;
18711;SDS011;9485;49.386;8.674;2024-01-27T04:08:47;3.90;;;2.00;;
18711;SDS011;9485;49.386;8.674;2024-01-27T04:14:08;2.93;;;2.07;;
18711;SDS011;9485;49.386;8.674;2024-01-27T04:19:30;4.53;;;1.83;;
18711;SDS011;9485;49.386;8.674;2024-01-27T04:24:51;2.40;;;1.93;;
18711;SDS011;9485;49.386;8.674;2024-01-27T04:30:12;2.13;;;1.70;;
18711;SDS011;9485;49.386;8.674;2024-01-27T04:35:34;2.93;;;1.77;;
18711;SDS011;9485;49.386;8.674;2024-01-27T04:40:54;2.47;;;1.77;;
18711;SDS011;9485;49.386;8.674;2024-01-27T04:46:15;3.13;;;1.63;;
18711;SDS011;9485;49.386;8.674;2024-01-27T04:51:37;5.97;;;2.37;;
18711;SDS011;9485;49.386;8.674;2024-01-27T04:56:57;2.43;;;1.77;;
18711;SDS011;9485;49.386;8.674;2024-01-27T05:02:18;1.90;;;1.80;;
18711;SDS011;9485;49.386;8.674;2024-01-27T05:07:40;4.13;;;2.33;;
18711;SDS011;9485;49.386;8.674;2024-01-27T05:13:01;4.23;;;2.03;;
18711;SDS011;9485;49.386;8.674;2024-01-27T05:18:21;2.13;;;1.60;;
18711;SDS011;9485;49.386;8.674;2024-01-27T05:23:43;4.83;;;1.77;;
18711;SDS011;9485;49.386;8.674;2024-01-27T05:29:04;2.43;;;1.83;;
18711;SDS011;9485;49.386;8.674;2024-01-27T05:34:24;2.60;;;1.87;;
18711;SDS011;9485;49.386;8.674;2024-01-27T05:39:46;2.33;;;1.77;;
18711;SDS011;9485;49.386;8.674;2024-01-27T05:45:07;2.10;;;1.90;;
18711;SDS011;9485;49.386;8.674;2024-01-27T05:50:29;3.00;;;1.80;;
18711;SDS011;9485;49.386;8.674;2024-01-27T05:55:51;5.47;;;1.70;;
18711;SDS011;9485;49.386;8.674;2024-01-27T06:01:13;2.47;;;1.87;;
18711;SDS011;9485;49.386;8.674;2024-01-27T06:06:33;3.40;;;1.93;;
18711;SDS011;9485;49.386;8.674;2024-01-27T06:11:57;3.43;;;2.23;;
18711;SDS011;9485;49.386;8.674;2024-01-27T06:17:19;2.63;;;2.10;;
18711;SDS011;9485;49.386;8.674;2024-01-27T06:22:40;2.97;;;2.50;;
18711;SDS011;9485;49.386;8.674;2024-01-27T06:28:02;4.30;;;2.13;;
18711;SDS011;9485;49.386;8.674;2024-01-27T06:33:22;3.40;;;2.17;;
18711;SDS011;9485;49.386;8.674;2024-01-27T06:38:43;1.93;;;1.70;;
18711;SDS011;9485;49.386;8.674;2024-01-27T06:44:05;2.60;;;2.10;;
18711;SDS011;9485;49.386;8.674;2024-01-27T06:49:26;2.63;;;2.23;;
18711;SDS011;9485;49.386;8.674;2024-01-27T06:54:47;3.70;;;1.70;;
18711;SDS011;9485;49.386;8.674;2024-01-27T07:00:09;2.40;;;1.77;;
18711;SDS011;9485;49.386;8.674;2024-01-27T07:05:33;2.43;;;1.97;;
18711;SDS011;9485;49.386;8.674;2024-01-27T07:10:57;3.17;;;2.10;;
18711;SDS011;9485;49.386;8.674;2024-01-27T07:16:19;1.97;;;1.77;;
18711;SDS011;9485;49.386;8.674;2024-01-27T07:21:40;2.47;;;1.90;;
18711;SDS011;9485;49.386;8.674;2024-01-27T07:27:00;2.20;;;1.93;;
18711;SDS011;9485;49.386;8.674;2024-01-27T07:32:24;2.50;;;1.90;;
18711;SDS011;9485;49.386;8.674;2024-01-27T07:37:45;2.83;;;1.87;;
18711;SDS011;9485;49.386;8.674;2024-01-27T07:43:05;2.97;;;1.70;;
18711;SDS011;9485;49.386;8.674;2024-01-27T07:48:27;3.77;;;2.43;;
18711;SDS011;9485;49.386;8.674;2024-01-27T07:53:48;3.93;;;2.23;;
18711;SDS011;9485;49.386;8.674;2024-01-27T07:59:09;2.43;;;1.80;;
18711;SDS011;9485;49.386;8.674;2024-01-27T08:04:34;5.00;;;2.10;;
18711;SDS011;9485;49.386;8.674;2024-01-27T08:09:54;3.97;;;2.47;;
18711;SDS011;9485;49.386;8.674;2024-01-27T08:15:16;2.77;;;1.60;;
18711;SDS011;9485;49.386;8.674;2024-01-27T08:20:37;4.77;;;2.13;;
18711;SDS011;9485;49.386;8.674;2024-01-27T08:25:58;2.80;;;2.17;;
18711;SDS011;9485;49.386;8.674;2024-01-27T08:31:18;2.40;;;2.20;;
18711;SDS011;9485;49.386;8.674;2024-01-27T08:36:40;5.13;;;2.70;;
18711;SDS011;9485;49.386;8.674;2024-01-27T08:42:01;5.57;;;2.47;;
18711;SDS011;9485;49.386;8.674;2024-01-27T08:47:21;3.70;;;1.93;;
18711;SDS011;9485;49.386;8.674;2024-01-27T08:52:43;5.17;;;2.50;;
18711;SDS011;9485;49.386;8.674;2024-01-27T08:58:04;2.97;;;2.13;;
18711;SDS011;9485;49.386;8.674;2024-01-27T09:03:25;4.87;;;2.77;;
18711;SDS011;9485;49.386;8.674;2024-01-27T09:08:47;3.13;;;2.30;;
18711;SDS011;9485;49.386;8.674;2024-01-27T09:14:08;3.53;;;2.40;;
18711;SDS011;9485;49.386;8.674;2024-01-27T09:19:28;4.83;;;3.13;;
18711;SDS011;9485;49.386;8.674;2024-01-27T09:24:50;3.87;;;2.80;;
18711;SDS011;9485;49.386;8.674;2024-01-27T09:30:11;2.90;;;2.50;;
18711;SDS011;9485;49.386;8.674;2024-01-27T09:35:33;4.10;;;2.83;;
18711;SDS011;9485;49.386;8.674;2024-01-27T09:40:55;4.23;;;2.43;;
18711;SDS011;9485;49.386;8.674;2024-01-27T09:46:16;2.70;;;2.20;;
18711;SDS011;9485;49.386;8.674;2024-01-27T09:51:37;2.87;;;2.13;;
18711;SDS011;9485;49.386;8.674;2024-01-27T09:56:59;2.77;;;2.13;;
18711;SDS011;9485;49.386;8.674;2024-01-27T10:02:21;2.40;;;1.90;;
18711;SDS011;9485;49.386;8.674;2024-01-27T10:07:44;5.35;;;2.22;;
18711;SDS011;9485;49.386;8.674;2024-01-27T10:13:05;2.28;;;1.92;;
18711;SDS011;9485;49.386;8.674;2024-01-27T10:18:28;3.83;;;2.03;;
18711;SDS011;9485;49.386;8.674;2024-01-27T10:23:49;2.25;;;1.95;;
18711;SDS011;9485;49.386;8.674;2024-01-27T10:29:12;2.65;;;1.77;;
18711;SDS011;9485;49.386;8.674;2024-01-27T10:34:33;2.25;;;1.58;;
18711;SDS011;9485;49.386;8.674;2024-01-27T10:39:59;2.78;;;1.95;;
18711;SDS011;9485;49.386;8.674;2024-01-27T10:45:23;2.88;;;1.30;;
18711;SDS011;9485;49.386;8.674;2024-01-27T10:50:44;3.67;;;1.85;;
18711;SDS011;9485;49.386;8.674;2024-01-27T10:56:07;3.33;;;2.08;;
18711;SDS011;9485;49.386;8.674;2024-01-27T11:01:31;3.90;;;1.40;;
18711;SDS011;9485;49.386;8.674;2024-01-27T11:06:52;4.20;;;1.80;;
18711;SDS011;9485;49.386;8.674;2024-01-27T11:12:16;2.55;;;1.77;;
18711;SDS011;9485;49.386;8.674;2024-01-27T11:17:40;3.63;;;2.10;;
18711;SDS011;9485;49.386;8.674;2024-01-27T11:23:09;6.35;;;2.35;;
18711;SDS011;9485;49.386;8.674;2024-01-27T11:28:31;3.77;;;1.83;;
18711;SDS011;9485;49.386;8.674;2024-01-27T11:33:53;2.67;;;1.70;;
18711;SDS011;9485;49.386;8.674;2024-01-27T11:39:23;3.57;;;1.80;;
18711;SDS011;9485;49.386;8.674;2024-01-27T11:44:47;4.07;;;1.83;;
18711;SDS011;9485;49.386;8.674;2024-01-27T11:50:09;3.33;;;1.77;;
18711;SDS011;9485;49.386;8.674;2024-01-27T11:55:31;2.43;;;2.00;;
18711;SDS011;9485;49.386;8.674;2024-01-27T12:00:51;3.00;;;1.53;;
18711;SDS011;9485;49.386;8.674;2024-01-27T12:06:13;3.13;;;1.80;;
18711;SDS011;9485;49.386;8.674;2024-01-27T12:11:34;2.23;;;1.73;;
18711;SDS011;9485;49.386;8.674;2024-01-27T12:16:55;4.53;;;1.77;;
18711;SDS011;9485;49.386;8.674;2024-01-27T12:22:23;3.07;;;1.70;;
18711;SDS011;9485;49.386;8.674;2024-01-27T12:27:46;4.20;;;1.70;;
18711;SDS011;9485;49.386;8.674;2024-01-27T12:33:09;2.70;;;1.80;;
18711;SDS011;9485;49.386;8.674;2024-01-27T12:38:33;4.00;;;1.93;;
18711;SDS011;9485;49.386;8.674;2024-01-27T12:43:54;3.30;;;2.17;;
18711;SDS011;9485;49.386;8.674;2024-01-27T12:49:15;2.47;;;1.97;;
18711;SDS011;9485;49.386;8.674;2024-01-27T12:54:37;1.70;;;1.60;;
18711;SDS011;9485;49.386;8.674;2024-01-27T12:59:58;3.83;;;1.83;;
18711;SDS011;9485;49.386;8.674;2024-01-27T13:05:18;3.13;;;1.93;;
18711;SDS011;9485;49.386;8.674;2024-01-27T13:10:40;2.67;;;2.07;;
18711;SDS011;9485;49.386;8.674;2024-01-27T13:16:01;2.53;;;1.80;;
18711;SDS011;9485;49.386;8.674;2024-01-27T13:21:21;2.37;;;1.80;;
18711;SDS011;9485;49.386;8.674;2024-01-27T13:26:43;2.90;;;1.70;;
18711;SDS011;9485;49.386;8.674;2024-01-27T13:32:04;2.67;;;1.37;;
18711;SDS011;9485;49.386;8.674;2024-01-27T13:37:25;2.73;;;1.70;;
18711;SDS011;9485;49.386;8.674;2024-01-27T13:42:48;4.77;;;1.80;;
18711;SDS011;9485;49.386;8.674;2024-01-27T13:48:09;4.60;;;2.10;;
18711;SDS011;9485;49.386;8.674;2024-01-27T13:53:30;3.70;;;2.57;;
18711;SDS011;9485;49.386;8.674;2024-01-27T13:58:52;3.77;;;1.60;;
18711;SDS011;9485;49.386;8.674;2024-01-27T14:04:12;3.20;;;1.97;;
18711;SDS011;9485;49.386;8.674;2024-01-27T14:09:33;4.27;;;1.80;;
18711;SDS011;9485;49.386;8.674;2024-01-27T14:15:01;3.60;;;1.90;;
18711;SDS011;9485;49.386;8.674;2024-01-27T14:20:25;2.70;;;1.50;;
18711;SDS011;9485;49.386;8.674;2024-01-27T14:25:48;4.53;;;2.10;;
18711;SDS011;9485;49.386;8.674;2024-01-27T14:31:10;3.30;;;2.03;;
18711;SDS011;9485;49.386;8.674;2024-01-27T14:36:31;3.07;;;1.73;;
18711;SDS011;9485;49.386;8.674;2024-01-27T14:41:52;3.97;;;1.73;;
18711;SDS011;9485;49.386;8.674;2024-01-27T14:47:14;1.87;;;1.50;;
18711;SDS011;9485;49.386;8.674;2024-01-27T14:52:34;4.00;;;1.73;;
18711;SDS011;9485;49.386;8.674;2024-01-27T14:57:55;2.83;;;1.53;;
18711;SDS011;9485;49.386;8.674;2024-01-27T15:03:17;3.30;;;1.93;;
18711;SDS011;9485;49.386;8.674;2024-01-27T15:08:38;3.20;;;1.73;;
18711;SDS011;9485;49.386;8.674;2024-01-27T15:13:59;4.20;;;1.80;;
18711;SDS011;9485;49.386;8.674;2024-01-27T15:19:21;2.50;;;1.90;;
18711;SDS011;9485;49.386;8.674;2024-01-27T15:24:42;3.87;;;1.63;;
18711;SDS011;9485;49.386;8.674;2024-01-27T15:30:03;6.23;;;1.63;;
18711;SDS011;9485;49.386;8.674;2024-01-27T15:35:26;5.90;;;1.60;;
18711;SDS011;9485;49.386;8.674;2024-01-27T15:40:51;4.90;;;1.63;;
18711;SDS011;9485;49.386;8.674;2024-01-27T15:46:11;2.67;;;1.40;;
18711;SDS011;9485;49.386;8.674;2024-01-27T15:51:33;3.70;;;2.03;;
18711;SDS011;9485;49.386;8.674;2024-01-27T15:56:53;5.23;;;1.93;;
18711;SDS011;9485;49.386;8.674;2024-01-27T16:02:14;4.57;;;2.50;;
18711;SDS011;9485;49.386;8.674;2024-01-27T16:07:36;9.77;;;3.73;;
18711;SDS011;9485;49.386;8.674;2024-01-27T16:12:56;5.00;;;3.07;;
18711;SDS011;9485;49.386;8.674;2024-01-27T16:18:17;7.47;;;3.73;;
18711;SDS011;9485;49.386;8.674;2024-01-27T16:23:39;4.57;;;3.27;;
18711;SDS011;9485;49.386;8.674;2024-01-27T16:28:59;7.20;;;3.07;;
18711;SDS011;9485;49.386;8.674;2024-01-27T16:34:22;5.80;;;3.17;;
18711;SDS011;9485;49.386;8.674;2024-01-27T16:39:44;4.83;;;2.70;;
18711;SDS011;9485;49.386;8.674;2024-01-27T16:45:05;7.13;;;3.17;;
18711;SDS011;9485;49.386;8.674;2024-01-27T16:50:28;4.50;;;2.73;;
18711;SDS011;9485;49.386;8.674;2024-01-27T16:55:51;6.00;;;3.00;;
18711;SDS011;9485;49.386;8.674;2024-01-27T17:01:12;6.50;;;2.80;;
18711;SDS011;9485;49.386;8.674;2024-01-27T17:06:32;6.60;;;2.87;;
18711;SDS011;9485;49.386;8.674;2024-01-27T17:11:54;5.80;;;2.63;;
18711;SDS011;9485;49.386;8.674;2024-01-27T17:17:15;5.63;;;3.57;;
18711;SDS011;9485;49.386;8.674;2024-01-27T17:22:36;5.67;;;3.57;;
18711;SDS011;9485;49.386;8.674;2024-01-27T17:27:58;5.37;;;3.23;;
18711;SDS011;9485;49.386;8.674;2024-01-27T17:33:19;3.57;;;3.07;;
18711;SDS011;9485;49.386;8.674;2024-01-27T17:38:40;3.37;;;2.40;;
18711;SDS011;9485;49.386;8.674;2024-01-27T17:44:02;6.03;;;2.50;;
18711;SDS011;9485;49.386;8.674;2024-01-27T17:49:22;3.50;;;1.67;;
18711;SDS011;9485;49.386;8.674;2024-01-27T17:54:43;4.53;;;1.90;;
18711;SDS011;9485;49.386;8.674;2024-01-27T18:00:05;2.77;;;1.80;;
18711;SDS011;9485;49.386;8.674;2024-01-27T18:05:28;4.70;;;2.03;;
18711;SDS011;9485;49.386;8.674;2024-01-27T18:10:49;4.77;;;2.00;;
18711;SDS011;9485;49.386;8.674;2024-01-27T18:16:11;3.00;;;2.40;;
18711;SDS011;9485;49.386;8.674;2024-01-27T18:21:32;3.97;;;2.07;;
18711;SDS011;9485;49.386;8.674;2024-01-27T18:26:53;4.00;;;2.17;;
18711;SDS011;9485;49.386;8.674;2024-01-27T18:32:15;6.70;;;2.70;;
18711;SDS011;9485;49.386;8.674;2024-01-27T18:37:35;3.33;;;2.00;;
18711;SDS011;9485;49.386;8.674;2024-01-27T18:42:56;4.53;;;2.07;;
18711;SDS011;9485;49.386;8.674;2024-01-27T18:48:18;3.77;;;2.17;;
18711;SDS011;9485;49.386;8.674;2024-01-27T18:53:40;2.90;;;2.00;;
18711;SDS011;9485;49.386;8.674;2024-01-27T18:59:02;4.27;;;2.10;;
18711;SDS011;9485;49.386;8.674;2024-01-27T19:04:23;3.53;;;2.40;;
18711;SDS011;9485;49.386;8.674;2024-01-27T19:09:45;2.23;;;1.70;;
18711;SDS011;9485;49.386;8.674;2024-01-27T19:15:06;3.10;;;2.37;;
18711;SDS011;9485;49.386;8.674;2024-01-27T19:20:28;2.53;;;1.93;;
18711;SDS011;9485;49.386;8.674;2024-01-27T19:25:49;3.60;;;1.70;;
18711;SDS011;9485;49.386;8.674;2024-01-27T19:31:09;4.13;;;2.10;;
18711;SDS011;9485;49.386;8.674;2024-01-27T19:36:31;5.07;;;2.30;;
18711;SDS011;9485;49.386;8.674;2024-01-27T19:41:52;3.23;;;1.73;;
18711;SDS011;9485;49.386;8.674;2024-01-27T19:47:13;3.33;;;2.50;;
18711;SDS011;9485;49.386;8.674;2024-01-27T19:52:35;2.93;;;1.40;;
18711;SDS011;9485;49.386;8.674;2024-01-27T19:57:55;1.80;;;1.60;;
18711;SDS011;9485;49.386;8.674;2024-01-27T20:03:16;4.40;;;1.80;;
18711;SDS011;9485;49.386;8.674;2024-01-27T20:08:38;2.30;;;1.70;;
18711;SDS011;9485;49.386;8.674;2024-01-27T20:13:59;4.77;;;1.80;;
18711;SDS011;9485;49.386;8.674;2024-01-27T20:19:20;3.47;;;1.80;;
18711;SDS011;9485;49.386;8.674;2024-01-27T20:24:42;3.50;;;1.97;;
18711;SDS011;9485;49.386;8.674;2024-01-27T20:30:03;2.67;;;1.73;;
18711;SDS011;9485;49.386;8.674;2024-01-27T20:35:25;1.97;;;1.77;;
18711;SDS011;9485;49.386;8.674;2024-01-27T20:40:47;4.37;;;2.17;;
18711;SDS011;9485;49.386;8.674;2024-01-27T20:46:07;4.63;;;2.30;;
18711;SDS011;9485;49.386;8.674;2024-01-27T20:51:28;3.43;;;1.80;;
18711;SDS011;9485;49.386;8.674;2024-01-27T20:56:51;3.30;;;1.90;;
18711;SDS011;9485;49.386;8.674;2024-01-27T21:02:15;2.23;;;1.90;;
18711;SDS011;9485;49.386;8.674;2024-01-27T21:07:40;3.73;;;2.33;;
18711;SDS011;9485;49.386;8.674;2024-01-27T21:13:02;3.77;;;2.20;;
18711;SDS011;9485;49.386;8.674;2024-01-27T21:18:23;3.27;;;2.00;;
18711;SDS011;9485;49.386;8.674;2024-01-27T21:23:46;5.63;;;2.50;;
18711;SDS011;9485;49.386;8.674;2024-01-27T21:29:08;3.83;;;1.90;;
18711;SDS011;9485;49.386;8.674;2024-01-27T21:34:30;3.30;;;1.70;;
18711;SDS011;9485;49.386;8.674;2024-01-27T21:39:51;3.10;;;1.70;;
18711;SDS011;9485;49.386;8.674;2024-01-27T21:45:14;3.57;;;1.60;;
18711;SDS011;9485;49.386;8.674;2024-01-27T21:50:35;1.97;;;1.70;;
18711;SDS011;9485;49.386;8.674;2024-01-27T21:55:55;2.70;;;1.70;;
18711;SDS011;9485;49.386;8.674;2024-01-27T22:01:17;1.83;;;1.30;;
18711;SDS011;9485;49.386;8.674;2024-01-27T22:06:38;4.70;;;1.80;;
18711;SDS011;9485;49.386;8.674;2024-01-27T22:11:58;1.80;;;1.47;;
18711;SDS011;9485;49.386;8.674;2024-01-27T22:17:22;1.90;;;1.50;;
18711;SDS011;9485;49.386;8.674;2024-01-27T22:22:43;1.37;;;1.20;;
18711;SDS011;9485;49.386;8.674;2024-01-27T22:28:03;4.93;;;2.10;;
18711;SDS011;9485;49.386;8.674;2024-01-27T22:33:26;2.57;;;1.53;;
18711;SDS011;9485;49.386;8.674;2024-01-27T22:38:46;5.33;;;2.00;;
18711;SDS011;9485;49.386;8.674;2024-01-27T22:44:07;3.90;;;2.20;;
18711;SDS011;9485;49.386;8.674;2024-01-27T22:49:29;3.27;;;2.20;;
18711;SDS011;9485;49.386;8.674;2024-01-27T22:54:51;6.83;;;2.33;;
18711;SDS011;9485;49.386;8.674;2024-01-27T23:00:12;2.67;;;2.23;;
18711;SDS011;9485;49.386;8.674;2024-01-27T23:05:42;3.87;;;2.70;;
18711;SDS011;9485;49.386;8.674;2024-01-27T23:11:03;2.90;;;2.60;;
18711;SDS011;9485;49.386;8.674;2024-01-27T23:16:25;4.50;;;2.77;;
18711;SDS011;9485;49.386;8.674;2024-01-27T23:21:47;5.37;;;3.00;;
18711;SDS011;9485;49.386;8.674;2024-01-27T23:27:07;6.97;;;3.80;;
18711;SDS011;9485;49.386;8.674;2024-01-27T23:32:28;4.03;;;3.30;;
18711;SDS011;9485;49.386;8.674;2024-01-27T23:37:50;4.27;;;2.77;;
18711;SDS011;9485;49.386;8.674;2024-01-27T23:43:11;2.80;;;2.43;;
18711;SDS011;9485;49.386;8.674;2024-01-27T23:48:32;3.80;;;2.30;;
18711;SDS011;9485;49.386;8.674;2024-01-27T23:53:54;3.67;;;1.60;;
18711;SDS011;9485;49.386;8.674;2024-01-27T23:59:16;4.27;;;2.10;;
